Time;durP1;ratioP1;P1;durP2;ratioP2;P2;SDS_P1;SDS_P2;PMS_P1;PMS_P2;Temp;Humidity;BMP_temperature;BMP_pressure;BME280_temperature;BME280_humidity;BME280_pressure;Samples;Min_cycle;Max_cycle;Signal;HPM_P1;HPM_P2
2022/04/16 00:03:23;;;;;;;22.80;14.40;;;;;;;8.87;100.00;101886.72;8288452;28;20069;-65
2022/04/16 00:07:24;;;;;;;24.98;14.73;;;;;;;8.81;100.00;101884.44;8287353;28;20407;-65
2022/04/16 00:11:24;;;;;;;23.17;15.05;;;;;;;8.76;100.00;101881.16;8288437;28;20143;-65
2022/04/16 00:15:26;;;;;;;21.73;14.30;;;;;;;8.71;100.00;101881.44;8291584;28;20169;-65
2022/04/16 00:19:27;;;;;;;22.25;15.27;;;;;;;8.46;100.00;101881.22;8293317;28;20034;-65
2022/04/16 00:23:27;;;;;;;23.67;14.48;;;;;;;8.29;100.00;101875.16;8268798;28;20563;-65
2022/04/16 00:27:27;;;;;;;27.02;15.57;;;;;;;8.20;100.00;101872.97;8294953;28;20524;-65
2022/04/16 00:31:28;;;;;;;26.70;15.70;;;;;;;8.24;100.00;101871.84;8293756;28;20030;-65
2022/04/16 00:35:29;;;;;;;24.67;15.35;;;;;;;8.21;100.00;101882.78;8294216;28;20465;-65
2022/04/16 00:39:29;;;;;;;23.20;15.45;;;;;;;8.24;100.00;101877.25;8294039;28;20053;-65
2022/04/16 00:43:30;;;;;;;24.30;16.45;;;;;;;8.20;100.00;101889.97;8276286;28;20049;-65
2022/04/16 00:47:30;;;;;;;27.10;16.75;;;;;;;8.21;100.00;101896.25;8294190;28;20030;-65
2022/04/16 00:51:31;;;;;;;30.13;16.55;;;;;;;8.11;100.00;101889.69;8272978;28;20117;-65
2022/04/16 00:55:36;;;;;;;28.63;17.08;;;;;;;8.06;100.00;101888.09;8284134;28;20042;-65
2022/04/16 00:59:37;;;;;;;23.75;15.95;;;;;;;8.08;100.00;101880.81;8293615;28;20044;-65
2022/04/16 01:03:39;;;;;;;30.80;17.25;;;;;;;8.06;100.00;101882.72;8299310;28;20513;-65
2022/04/16 01:07:58;;;;;;;28.65;16.08;;;;;;;8.11;100.00;101884.28;8308665;28;20060;-65
2022/04/16 01:12:00;;;;;;;27.38;16.95;;;;;;;7.96;100.00;101886.03;8293009;28;20069;-65
2022/04/16 01:16:01;;;;;;;27.52;17.95;;;;;;;7.90;100.00;101894.53;8292522;28;20050;-65
2022/04/16 01:20:02;;;;;;;27.65;16.95;;;;;;;7.92;100.00;101888.06;8286820;28;20414;-65
2022/04/16 01:24:05;;;;;;;28.50;16.95;;;;;;;7.67;100.00;101895.84;8270278;28;20578;-65
2022/04/16 01:28:06;;;;;;;32.65;18.02;;;;;;;7.88;100.00;101904.50;8292376;28;20041;-65
2022/04/16 01:32:09;;;;;;;27.67;17.13;;;;;;;7.83;100.00;101896.69;8276207;28;20053;-65
2022/04/16 01:36:12;;;;;;;26.58;17.35;;;;;;;7.55;100.00;101907.31;8284065;28;20048;-65
2022/04/16 01:40:14;;;;;;;29.85;17.70;;;;;;;7.44;100.00;101911.59;8289871;28;20045;-65
2022/04/16 01:44:15;;;;;;;26.17;16.58;;;;;;;7.13;100.00;101915.09;8281855;28;20053;-65
2022/04/16 01:48:17;;;;;;;26.00;16.80;;;;;;;6.93;100.00;101911.78;8283030;28;20041;-65
2022/04/16 01:52:17;;;;;;;26.90;16.60;;;;;;;6.94;100.00;101914.38;8272579;28;20345;-65
2022/04/16 01:56:17;;;;;;;26.73;16.95;;;;;;;6.87;100.00;101926.44;8288479;28;20042;-65
2022/04/16 02:00:19;;;;;;;27.30;17.15;;;;;;;6.93;100.00;101918.03;8291633;28;20038;-65
2022/04/16 02:04:20;;;;;;;27.80;17.42;;;;;;;6.81;100.00;101918.69;8291658;28;20030;-65
2022/04/16 02:08:20;;;;;;;31.27;18.80;;;;;;;6.83;100.00;101921.28;8291752;28;20053;-65
2022/04/16 02:12:21;;;;;;;31.92;19.45;;;;;;;7.09;100.00;101921.63;8291047;28;20050;-65
2022/04/16 02:16:21;;;;;;;29.02;17.73;;;;;;;7.03;100.00;101930.00;8290606;28;20045;-65
2022/04/16 02:20:23;;;;;;;31.48;19.95;;;;;;;6.99;100.00;101928.44;8282435;28;20522;-66
2022/04/16 02:24:23;;;;;;;26.92;17.50;;;;;;;6.51;100.00;101932.88;8272384;28;20049;-66
2022/04/16 02:28:24;;;;;;;30.45;17.90;;;;;;;6.51;100.00;101946.31;8258365;28;20045;-66
2022/04/16 02:32:25;;;;;;;30.80;19.33;;;;;;;6.37;100.00;101940.78;8258656;28;20042;-65
2022/04/16 02:36:26;;;;;;;34.00;19.55;;;;;;;6.28;100.00;101928.69;8263724;28;20052;-65
2022/04/16 02:40:27;;;;;;;38.05;21.73;;;;;;;6.41;100.00;101945.94;8259432;28;20034;-65
2022/04/16 02:48:48;;;;;;;35.03;20.92;;;;;;;6.03;100.00;101954.22;8270526;28;20041;-65
2022/04/16 02:52:48;;;;;;;34.63;19.42;;;;;;;5.83;100.00;101961.41;8259408;28;20026;-65
2022/04/16 02:56:49;;;;;;;34.55;21.05;;;;;;;6.03;100.00;101954.22;8288766;28;20045;-65
2022/04/16 03:00:49;;;;;;;38.53;22.27;;;;;;;6.05;100.00;101958.53;8289632;28;20108;-65
2022/04/16 03:04:50;;;;;;;37.05;21.90;;;;;;;5.95;100.00;101968.00;8289778;28;20044;-65
2022/04/16 03:08:50;;;;;;;37.10;21.33;;;;;;;5.76;100.00;101961.75;8289836;28;20030;-65
2022/04/16 03:12:52;;;;;;;42.90;23.75;;;;;;;5.98;100.00;101960.66;8283629;28;20049;-66
2022/04/16 03:17:53;;;;;;;36.55;21.95;;;;;;;5.79;100.00;101962.47;8262634;28;20054;-65
2022/04/16 03:21:13;;;;;;;39.15;22.15;;;;;;;5.69;100.00;101960.31;8262704;28;20096;-65
2022/04/16 03:25:13;;;;;;;45.85;24.45;;;;;;;5.69;100.00;101954.94;8277967;28;20509;-65
2022/04/16 03:29:14;;;;;;;46.13;24.92;;;;;;;5.92;100.00;101957.41;8289206;28;20044;-65
2022/04/16 03:33:14;;;;;;;41.60;24.65;;;;;;;5.66;100.00;101964.03;8288953;28;20049;-65
2022/04/16 03:37:15;;;;;;;38.65;21.98;;;;;;;5.64;100.00;101962.34;8288524;28;20513;-65
2022/04/16 03:41:15;;;;;;;42.33;22.00;;;;;;;5.47;100.00;101959.63;8288929;28;20100;-65
2022/04/16 03:45:20;;;;;;;38.60;22.10;;;;;;;5.47;100.00;101957.81;8289275;28;20088;-65
2022/04/16 03:49:21;;;;;;;36.33;21.08;;;;;;;5.57;100.00;101955.53;8291307;28;20631;-65
2022/04/16 03:53:21;;;;;;;36.92;21.25;;;;;;;5.45;100.00;101961.50;8295594;28;20046;-65
2022/04/16 04:01:42;;;;;;;37.70;21.20;;;;;;;5.53;100.00;101975.41;8294158;28;20106;-65
2022/04/16 04:05:48;;;;;;;31.15;18.83;;;;;;;5.27;100.00;101978.44;8278565;28;20053;-65
2022/04/16 04:09:49;;;;;;;33.05;19.70;;;;;;;4.88;100.00;101980.28;8263789;28;20038;-65
2022/04/16 04:13:49;;;;;;;33.65;19.42;;;;;;;5.16;100.00;101983.44;8283302;28;20513;-65
2022/04/16 04:17:50;;;;;;;30.73;18.17;;;;;;;4.72;100.00;101989.91;8293554;28;20125;-65
2022/04/16 04:21:50;;;;;;;37.63;21.83;;;;;;;4.94;100.00;101982.69;8274726;28;20069;-66
2022/04/16 04:25:51;;;;;;;39.30;22.40;;;;;;;5.10;100.00;101986.41;8288006;28;20449;-66
2022/04/16 04:29:52;;;;;;;40.20;21.98;;;;;;;4.84;100.00;101994.72;8294819;28;20120;-66
2022/04/16 04:33:52;;;;;;;34.30;20.90;;;;;;;4.71;100.00;101988.19;8293164;28;20034;-66
2022/04/16 04:37:53;;;;;;;38.42;21.60;;;;;;;4.81;100.00;101994.88;8272419;28;20094;-66
2022/04/16 04:41:53;;;;;;;37.83;21.40;;;;;;;4.93;100.00;102005.03;8262768;28;20507;-66
2022/04/16 04:45:54;;;;;;;33.95;19.85;;;;;;;4.67;100.00;102005.34;8263147;28;20446;-66
2022/04/16 04:49:54;;;;;;;37.80;21.35;;;;;;;5.22;100.00;102004.59;8263821;28;20080;-66
2022/04/16 04:53:54;;;;;;;33.63;20.13;;;;;;;5.09;100.00;102006.13;8281959;28;20038;-66
2022/04/16 04:57:55;;;;;;;29.77;18.77;;;;;;;5.29;100.00;102014.09;8262962;28;20049;-66
2022/04/16 05:01:55;;;;;;;26.00;16.42;;;;;;;4.95;100.00;102021.94;8261322;28;20122;-66
2022/04/16 05:05:56;;;;;;;30.90;19.05;;;;;;;5.14;100.00;102025.53;8262723;28;20509;-66
2022/04/16 05:09:56;;;;;;;28.70;18.10;;;;;;;5.35;100.00;102029.91;8262427;28;20039;-66
2022/04/16 05:13:56;;;;;;;30.02;18.88;;;;;;;5.37;100.00;102036.09;8282813;28;20084;-66
2022/04/16 05:17:57;;;;;;;29.67;18.45;;;;;;;5.53;100.00;102043.34;8292817;28;20037;-66
2022/04/16 05:21:57;;;;;;;35.15;19.13;;;;;;;5.62;100.00;102048.25;8271506;28;20093;-66
2022/04/16 05:25:57;;;;;;;33.88;20.65;;;;;;;5.95;100.00;102045.84;8286976;28;20053;-66
2022/04/16 05:30:06;;;;;;;30.45;18.02;;;;;;;6.19;100.00;102050.00;8292556;28;20065;-66
2022/04/16 05:34:22;;;;;;;33.22;19.58;;;;;;;6.63;100.00;102070.16;8291974;28;20107;-66
2022/04/16 05:38:23;;;;;;;30.85;18.55;;;;;;;6.39;100.00;102068.69;8268847;28;20117;-66
2022/04/16 05:42:23;;;;;;;31.80;18.77;;;;;;;6.76;100.00;102071.25;8275057;28;20046;-66
2022/04/16 05:46:23;;;;;;;32.58;17.85;;;;;;;6.88;100.00;102075.13;8287441;28;20685;-66
2022/04/16 05:50:24;;;;;;;26.83;17.50;;;;;;;7.40;100.00;102080.38;8269317;28;20052;-66
2022/04/16 05:54:24;;;;;;;32.35;16.70;;;;;;;7.56;100.00;102078.59;8275980;28;20038;-66
2022/04/16 05:58:25;;;;;;;29.63;18.33;;;;;;;7.81;100.00;102081.66;8260752;28;20056;-66
2022/04/16 06:02:25;;;;;;;34.53;19.17;;;;;;;8.08;100.00;102090.03;8270212;28;20564;-66
2022/04/16 06:06:26;;;;;;;30.85;19.92;;;;;;;8.75;99.20;102093.31;8291349;28;20045;-66
2022/04/16 06:10:26;;;;;;;26.00;16.90;;;;;;;9.02;97.79;102090.78;8291344;28;20045;-66
2022/04/16 06:14:27;;;;;;;29.55;18.15;;;;;;;9.15;98.28;102091.81;8291043;28;20038;-66
2022/04/16 06:18:28;;;;;;;30.33;18.92;;;;;;;9.18;98.20;102097.84;8290879;28;20053;-66
2022/04/16 06:22:28;;;;;;;32.95;20.75;;;;;;;9.59;98.74;102098.03;8265194;28;20130;-66
2022/04/16 06:26:28;;;;;;;57.03;32.57;;;;;;;9.69;96.03;102099.16;8273030;28;20121;-66
2022/04/16 06:30:29;;;;;;;30.83;19.02;;;;;;;9.86;95.62;102096.28;8259272;28;20269;-66
2022/04/16 06:34:29;;;;;;;28.33;17.95;;;;;;;9.92;94.50;102104.00;8276572;28;20046;-66
2022/04/16 06:38:31;;;;;;;30.38;18.77;;;;;;;10.19;95.51;102104.09;8283383;28;20452;-66
2022/04/16 06:42:32;;;;;;;30.83;20.85;;;;;;;10.11;94.19;102104.59;8271847;28;20065;-66
2022/04/16 06:46:33;;;;;;;33.28;19.83;;;;;;;10.10;92.90;102102.84;8278512;28;20121;-66
2022/04/16 06:50:33;;;;;;;30.58;20.83;;;;;;;10.31;93.78;102098.72;8283218;28;20742;-66
2022/04/16 06:54:33;;;;;;;28.48;18.08;;;;;;;10.53;92.38;102099.06;8284808;28;20038;-66
2022/04/16 06:58:34;;;;;;;27.88;17.02;;;;;;;10.81;91.25;102109.78;8290367;28;20121;-66
2022/04/16 07:02:36;;;;;;;27.67;19.00;;;;;;;10.90;90.80;102120.00;8275907;28;20038;-66
2022/04/16 07:06:39;;;;;;;27.05;17.95;;;;;;;10.90;90.31;102120.00;8262003;28;20118;-66
2022/04/16 07:10:39;;;;;;;28.67;18.35;;;;;;;11.25;88.36;102126.56;8259329;28;20038;-66
2022/04/16 07:14:40;;;;;;;26.47;17.77;;;;;;;11.50;87.18;102121.16;8273856;28;20104;-66
2022/04/16 07:18:40;;;;;;;28.02;17.92;;;;;;;11.63;86.83;102124.81;8275206;28;20281;-66
2022/04/16 07:22:41;;;;;;;25.95;16.58;;;;;;;12.10;85.71;102115.13;8267410;28;20034;-66
2022/04/16 07:26:41;;;;;;;29.15;18.05;;;;;;;11.77;86.35;102112.97;8287145;28;20076;-66
2022/04/16 07:30:41;;;;;;;27.02;17.58;;;;;;;12.21;85.63;102112.47;8287374;28;20498;-66
2022/04/16 07:34:42;;;;;;;26.60;15.47;;;;;;;12.41;84.05;102112.72;8269074;28;20106;-66
2022/04/16 07:38:43;;;;;;;22.43;15.37;;;;;;;12.68;82.33;102112.50;8264261;28;20265;-66
2022/04/16 07:42:43;;;;;;;23.92;14.82;;;;;;;12.92;81.40;102108.81;8269729;28;20623;-66
2022/04/16 07:46:44;;;;;;;23.50;14.18;;;;;;;13.04;78.34;102109.75;8265293;28;20046;-66
2022/04/16 07:50:45;;;;;;;21.30;13.35;;;;;;;12.98;78.84;102099.34;8272283;28;20456;-66
2022/04/16 07:54:45;;;;;;;20.53;13.57;;;;;;;13.38;78.85;102098.00;8262777;28;20054;-66
2022/04/16 07:58:46;;;;;;;20.23;13.93;;;;;;;13.54;77.60;102106.69;8266624;28;20297;-66
2022/04/16 08:02:46;;;;;;;22.10;13.68;;;;;;;13.48;76.65;102090.91;8270544;28;20107;-67
2022/04/16 08:06:46;;;;;;;20.33;13.18;;;;;;;13.60;76.68;102103.47;8268154;28;20034;-67
2022/04/16 08:10:51;;;;;;;22.52;13.38;;;;;;;13.72;75.17;102108.81;8263966;28;20038;-67
2022/04/16 08:14:52;;;;;;;24.73;14.10;;;;;;;13.67;74.80;102097.44;8269877;28;20033;-67
2022/04/16 08:18:52;;;;;;;21.25;13.63;;;;;;;13.81;75.61;102090.91;8265150;28;20053;-67
2022/04/16 08:22:53;;;;;;;19.05;12.77;;;;;;;13.96;73.71;102100.56;8268978;28;20038;-67
2022/04/16 08:26:53;;;;;;;23.35;14.38;;;;;;;14.16;72.85;102094.38;8269697;28;20294;-67
2022/04/16 08:30:54;;;;;;;22.83;14.05;;;;;;;14.26;73.11;102089.94;8275427;28;20041;-67
2022/04/16 08:34:55;;;;;;;21.23;13.13;;;;;;;14.50;73.17;102096.09;8271103;28;20046;-67
2022/04/16 08:38:55;;;;;;;20.53;12.33;;;;;;;14.41;70.33;102091.41;8279781;28;20053;-67
2022/04/16 08:42:56;;;;;;;19.40;12.52;;;;;;;14.66;71.17;102101.97;8272664;28;20653;-67
2022/04/16 08:46:58;;;;;;;19.75;13.18;;;;;;;14.49;70.85;102094.31;8271040;28;20439;-67
2022/04/16 08:50:59;;;;;;;17.92;11.38;;;;;;;15.00;69.55;102103.56;8273408;28;20053;-67
2022/04/16 08:55:01;;;;;;;15.88;10.40;;;;;;;15.13;65.42;102101.53;8273076;28;20045;-67
2022/04/16 08:59:01;;;;;;;13.50;10.10;;;;;;;15.35;64.90;102104.16;8274963;28;20494;-67
2022/04/16 09:03:04;;;;;;;15.00;9.80;;;;;;;15.53;65.36;102115.34;8276271;28;20060;-67
2022/04/16 09:07:05;;;;;;;12.70;9.10;;;;;;;16.12;63.03;102118.25;8259005;28;20049;-67
2022/04/16 09:11:09;;;;;;;12.38;8.57;;;;;;;15.50;62.94;102100.09;8272832;28;20042;-67
2022/04/16 09:15:11;;;;;;;15.52;9.30;;;;;;;15.69;64.08;102105.72;8275006;28;20053;-67
2022/04/16 09:19:21;;;;;;;13.52;8.52;;;;;;;15.44;63.27;102108.81;8271910;28;20577;-67
2022/04/16 09:23:22;;;;;;;19.05;11.05;;;;;;;15.25;66.49;102111.38;8281087;28;20494;-67
2022/04/16 09:27:22;;;;;;;12.15;7.88;;;;;;;15.09;62.82;102116.41;8275733;28;20413;-67
2022/04/16 09:31:28;;;;;;;12.20;8.50;;;;;;;14.70;65.13;102119.78;8278900;28;20034;-67
2022/04/16 09:35:33;;;;;;;12.88;8.73;;;;;;;14.82;64.25;102113.31;8294354;28;20046;-67
2022/04/16 09:39:33;;;;;;;;;;;;;;;15.00;61.18;102117.19;8270222;28;20038;-67
2022/04/16 09:43:35;;;;;;;9.27;6.93;;;;;;;14.80;62.56;102112.59;8274306;28;19964;-67
2022/04/16 09:47:36;;;;;;;9.57;6.72;;;;;;;16.96;59.61;102115.91;8268018;28;20045;-68
2022/04/16 09:51:37;;;;;;;13.23;7.50;;;;;;;17.34;56.49;102104.97;8269975;28;20771;-67
2022/04/16 09:55:39;;;;;;;7.47;6.28;;;;;;;17.93;53.77;102112.94;8260390;28;20042;-66
2022/04/16 09:59:45;;;;;;;8.40;6.22;;;;;;;16.16;57.68;102119.72;8258506;28;20056;-67
2022/04/16 10:03:47;;;;;;;8.45;6.18;;;;;;;15.49;57.99;102112.03;8266376;28;20436;-67
2022/04/16 10:07:48;;;;;;;9.75;5.72;;;;;;;15.48;59.33;102113.03;8260595;28;20037;-67
2022/04/16 10:16:17;;;;;;;7.45;5.50;;;;;;;17.46;54.87;102106.56;8266132;28;21176;-67
2022/04/16 10:20:20;;;;;;;7.78;4.82;;;;;;;16.87;57.47;102111.31;8262488;28;20042;-67
2022/04/16 10:24:25;;;;;;;9.40;5.85;;;;;;;18.37;53.85;102109.47;8266886;28;20529;-67
2022/04/16 10:28:27;;;;;;;5.80;4.70;;;;;;;18.14;54.08;102102.63;8265927;28;20038;-66
2022/04/16 10:32:38;;;;;;;7.28;4.22;;;;;;;19.14;52.64;102097.81;8265662;28;20049;-66
2022/04/16 10:36:51;;;;;;;5.47;4.47;;;;;;;20.87;48.68;102100.22;8260722;28;20046;-66
2022/04/16 10:41:01;;;;;;;4.78;3.72;;;;;;;21.36;47.04;102093.78;8258091;28;20387;-66
2022/04/16 10:45:09;;;;;;;6.38;4.70;;;;;;;20.83;47.48;102104.34;8259560;28;20049;-66
2022/04/16 10:49:11;;;;;;;5.82;3.67;;;;;;;21.63;46.50;102100.81;8260708;28;20260;-66
2022/04/16 10:53:12;;;;;;;5.28;3.58;;;;;;;20.39;48.61;102102.81;8266327;28;20553;-66
2022/04/16 10:57:20;;;;;;;4.10;3.20;;;;;;;20.36;48.05;102103.16;8266508;28;20426;-66
2022/04/16 11:01:26;;;;;;;4.90;3.50;;;;;;;21.18;47.34;102093.09;8257645;28;20080;-66
2022/04/16 11:05:35;;;;;;;4.28;2.70;;;;;;;21.79;44.86;102085.16;8264222;28;20561;-66
2022/04/16 11:09:37;;;;;;;3.10;2.50;;;;;;;21.82;44.75;102079.31;8254822;28;20045;-66
2022/04/16 11:13:40;;;;;;;2.35;2.13;;;;;;;23.80;43.22;102092.25;8257931;28;20491;-66
2022/04/16 11:17:40;;;;;;;3.42;2.17;;;;;;;23.80;43.18;102095.00;8260676;28;20038;-67
2022/04/16 11:21:43;;;;;;;2.70;2.42;;;;;;;22.58;43.13;102093.34;8263481;28;20054;-67
2022/04/16 11:34:37;;;;;;;2.55;1.90;;;;;;;22.57;41.87;102080.59;8264432;28;20410;-66
2022/04/16 11:38:40;;;;;;;2.60;2.13;;;;;;;22.02;43.93;102086.13;8243885;28;20050;-68
2022/04/16 11:42:44;;;;;;;2.92;1.90;;;;;;;21.44;42.82;102074.53;8263844;28;20049;-67
2022/04/16 11:46:45;;;;;;;5.45;2.75;;;;;;;22.89;41.95;102058.31;8251824;28;20047;-66
2022/04/16 11:50:45;;;;;;;2.75;1.83;;;;;;;22.08;43.11;102071.63;8254411;28;20041;-67
2022/04/16 11:54:46;;;;;;;3.58;1.65;;;;;;;20.92;43.28;102070.34;8265482;28;20038;-67
2022/04/16 11:58:51;;;;;;;2.83;1.70;;;;;;;20.36;45.35;102059.19;8265291;28;20037;-66
2022/04/16 12:02:55;;;;;;;2.38;1.60;;;;;;;19.36;45.84;102061.69;8253500;28;20030;-66
2022/04/16 12:06:56;;;;;;;3.42;1.33;;;;;;;19.07;46.35;102063.81;8253474;28;20038;-66
2022/04/16 12:10:59;;;;;;;1.48;1.27;;;;;;;18.48;46.62;102058.06;8261466;28;20069;-66
2022/04/16 12:14:59;;;;;;;3.53;2.22;;;;;;;18.05;46.25;102051.53;8271973;28;20405;-67
2022/04/16 12:18:59;;;;;;;2.73;2.10;;;;;;;18.32;48.94;102055.09;8262246;28;20108;-66
2022/04/16 12:23:02;;;;;;;3.25;2.58;;;;;;;18.00;47.84;102049.25;8258031;28;20266;-66
2022/04/16 12:27:03;;;;;;;4.28;1.80;;;;;;;18.12;50.53;102042.56;8257468;28;20035;-60
2022/04/16 12:31:03;;;;;;;3.20;1.65;;;;;;;17.89;49.49;102035.75;8266644;28;20065;-66
2022/04/16 12:35:04;;;;;;;1.83;1.63;;;;;;;17.46;48.17;102046.41;8265647;28;20045;-67
2022/04/16 12:39:04;;;;;;;1.95;1.67;;;;;;;17.54;49.36;102057.47;8263050;28;20081;-66
2022/04/16 12:43:04;;;;;;;5.47;2.80;;;;;;;17.13;49.30;102052.31;8270148;28;20148;-67
2022/04/16 12:47:05;;;;;;;3.90;2.70;;;;;;;17.49;49.87;102048.84;8267764;28;20276;-66
2022/04/16 12:51:05;;;;;;;5.53;2.50;;;;;;;17.54;49.26;102043.81;8267001;28;20088;-66
2022/04/16 12:55:06;;;;;;;4.15;2.72;;;;;;;17.49;51.55;102043.38;8261718;28;20046;-66
2022/04/16 12:59:07;;;;;;;3.03;2.15;;;;;;;17.00;49.24;102049.91;8258662;28;20050;-66
2022/04/16 13:03:07;;;;;;;2.28;1.90;;;;;;;17.05;51.36;102038.53;8263658;28;20046;-66
2022/04/16 13:07:08;;;;;;;3.85;2.35;;;;;;;17.11;50.15;102032.50;8261319;28;21003;-67
2022/04/16 13:11:10;;;;;;;2.57;2.30;;;;;;;16.98;48.68;102042.84;8270058;28;20080;-66
2022/04/16 13:15:11;;;;;;;2.95;2.13;;;;;;;16.79;48.95;102021.00;8267041;28;20288;-66
2022/04/16 13:19:12;;;;;;;3.05;2.10;;;;;;;16.79;49.04;102023.72;8266420;28;20042;-67
2022/04/16 13:23:13;;;;;;;2.88;2.10;;;;;;;17.38;49.45;102014.28;8264116;28;20501;-66
2022/04/16 13:27:13;;;;;;;4.13;2.10;;;;;;;17.19;49.69;102013.47;8274731;28;20503;-66
2022/04/16 13:31:14;;;;;;;3.70;2.35;;;;;;;17.36;48.89;102018.19;8271927;28;20274;-66
2022/04/16 13:35:14;;;;;;;4.70;2.20;;;;;;;17.30;48.67;102013.31;8269842;28;20050;-65
2022/04/16 13:43:35;;;;;;;2.83;1.73;;;;;;;17.19;48.44;101997.06;8269401;28;20425;-65
2022/04/16 13:47:36;;;;;;;3.85;1.98;;;;;;;17.13;48.04;102004.00;8269876;28;20108;-66
2022/04/16 13:51:36;;;;;;;2.40;1.85;;;;;;;17.20;47.81;101979.69;8267774;28;20046;-66
2022/04/16 13:55:38;;;;;;;3.83;1.80;;;;;;;17.33;45.54;101988.41;8270351;28;20141;-66
2022/04/16 13:59:38;;;;;;;4.22;2.00;;;;;;;17.40;46.94;101984.06;8249710;28;20236;-65
2022/04/16 14:03:39;;;;;;;4.32;1.80;;;;;;;17.52;48.05;101980.16;8268986;28;20046;-65
2022/04/16 14:07:40;;;;;;;3.53;1.95;;;;;;;17.30;45.90;101977.78;8265296;28;20053;-65
2022/04/16 14:11:42;;;;;;;2.88;1.70;;;;;;;17.51;47.13;101970.25;8278416;28;20092;-65
2022/04/16 14:15:42;;;;;;;3.08;2.15;;;;;;;17.56;47.02;101968.78;8272322;28;20052;-65
2022/04/16 14:19:43;;;;;;;3.97;2.10;;;;;;;17.88;47.72;101965.63;8268036;28;20038;-66
2022/04/16 14:23:43;;;;;;;4.28;1.95;;;;;;;17.59;45.74;101963.00;8284476;28;20039;-65
2022/04/16 14:27:45;;;;;;;2.17;1.27;;;;;;;17.67;46.35;101959.53;8261890;28;20048;-65
2022/04/16 14:31:46;;;;;;;3.78;1.63;;;;;;;17.94;44.72;101954.06;8275493;28;20407;-66
2022/04/16 14:35:47;;;;;;;1.90;1.45;;;;;;;17.93;45.99;101949.56;8252666;28;20515;-66
2022/04/16 14:39:47;;;;;;;4.07;1.90;;;;;;;17.70;44.86;101948.28;8273877;28;20481;-66
2022/04/16 14:43:50;;;;;;;2.45;1.35;;;;;;;17.63;42.00;101947.16;8269054;28;20156;-66
2022/04/16 14:47:51;;;;;;;2.15;1.25;;;;;;;17.67;40.37;101925.81;8261381;28;20096;-66
2022/04/16 14:51:55;;;;;;;1.40;1.03;;;;;;;18.04;41.13;101930.22;8259114;28;20038;-66
2022/04/16 14:55:56;;;;;;;5.05;1.55;;;;;;;18.23;43.49;101929.19;8260329;28;20299;-66
2022/04/16 14:59:56;;;;;;;1.73;1.23;;;;;;;18.10;41.13;101935.06;8256460;28;20125;-66
2022/04/16 15:03:57;;;;;;;1.83;1.05;;;;;;;17.93;39.15;101922.22;8260706;28;20045;-66
2022/04/16 15:07:57;;;;;;;2.55;1.20;;;;;;;18.01;37.93;101930.53;8254003;28;20128;-66
2022/04/16 15:12:00;;;;;;;1.55;0.82;;;;;;;18.03;39.99;101923.03;8257186;28;20172;-66
2022/04/16 15:16:01;;;;;;;6.22;1.00;;;;;;;17.86;38.04;101918.38;8267932;28;20060;-66
2022/04/16 15:20:01;;;;;;;2.83;0.98;;;;;;;17.88;38.49;101924.56;8263756;28;20674;-66
2022/04/16 15:24:01;;;;;;;2.63;1.25;;;;;;;17.88;37.21;101913.63;8259382;28;20451;-66
2022/04/16 15:28:02;;;;;;;1.45;0.80;;;;;;;17.92;39.56;101914.16;8266863;28;20517;-66
2022/04/16 15:32:03;;;;;;;1.67;0.98;;;;;;;17.93;38.70;101905.78;8257615;28;20434;-66
2022/04/16 15:36:04;;;;;;;2.28;1.10;;;;;;;17.96;41.77;101910.94;8271905;28;20046;-64
2022/04/16 15:40:05;;;;;;;1.40;1.17;;;;;;;17.79;38.67;101914.53;8269580;28;20045;-64
2022/04/16 15:44:08;;;;;;;3.08;0.90;;;;;;;17.81;40.60;101922.59;8268489;28;20045;-64
2022/04/16 15:48:08;;;;;;;2.65;1.10;;;;;;;17.72;39.90;101921.66;8264558;28;20080;-66
2022/04/16 15:52:09;;;;;;;1.92;1.08;;;;;;;17.72;40.02;101907.97;8264187;28;20050;-66
2022/04/16 15:56:10;;;;;;;3.38;1.05;;;;;;;17.77;40.08;101905.59;8276839;28;20049;-66
2022/04/16 16:00:11;;;;;;;4.32;1.08;;;;;;;17.76;39.38;101913.97;8303515;28;20045;-64
2022/04/16 16:05:12;;;;;;;3.08;0.73;;;;;;;17.76;40.16;101909.38;8276456;28;20065;-65
2022/04/16 16:08:32;;;;;;;1.40;1.00;;;;;;;17.97;41.74;101906.34;8267326;28;20045;-65
2022/04/16 16:12:32;;;;;;;1.17;0.77;;;;;;;17.93;41.12;101908.53;8270984;28;20041;-65
2022/04/16 16:16:32;;;;;;;1.35;0.75;;;;;;;17.91;41.28;101907.84;8266224;28;20297;-65
2022/04/16 16:20:33;;;;;;;2.07;1.07;;;;;;;17.72;37.03;101907.09;8269681;28;20327;-65
2022/04/16 16:24:35;;;;;;;1.63;0.68;;;;;;;17.65;34.95;101900.53;8263705;28;20289;-65
2022/04/16 16:28:35;;;;;;;1.90;0.85;;;;;;;17.51;34.95;101912.81;8272217;28;20052;-65
2022/04/16 16:32:36;;;;;;;1.98;0.57;;;;;;;17.44;34.99;101909.81;8272333;28;20543;-65
2022/04/16 16:36:37;;;;;;;0.85;0.63;;;;;;;17.36;35.15;101917.03;8281361;28;20046;-65
2022/04/16 16:40:37;;;;;;;2.15;0.68;;;;;;;17.36;35.37;101912.41;8278995;28;20065;-65
2022/04/16 16:44:38;;;;;;;2.47;0.68;;;;;;;17.37;35.81;101913.28;8277507;28;20046;-65
2022/04/16 16:48:38;;;;;;;1.90;0.40;;;;;;;17.38;34.91;101910.38;8263466;28;20038;-65
2022/04/16 16:52:39;;;;;;;1.37;0.60;;;;;;;17.32;33.52;101910.97;8278258;28;20049;-65
2022/04/16 16:56:40;;;;;;;1.10;0.73;;;;;;;17.25;34.66;101909.88;8285804;28;20284;-65
2022/04/16 17:00:41;;;;;;;0.80;0.57;;;;;;;17.18;34.61;101907.88;8265298;28;20061;-65
2022/04/16 17:05:12;;;;;;;1.38;0.50;;;;;;;17.09;33.69;101904.19;8288534;28;20042;-65
2022/04/16 17:09:02;;;;;;;2.35;0.65;;;;;;;16.90;34.66;101908.84;8282106;28;20046;-65
2022/04/16 17:13:02;;;;;;;1.00;0.50;;;;;;;16.83;34.96;101904.94;8271974;28;20545;-65
2022/04/16 17:21:23;;;;;;;2.45;0.82;;;;;;;16.59;34.20;101912.78;8267825;28;20050;-65
2022/04/16 17:25:24;;;;;;;1.02;0.40;;;;;;;16.51;34.34;101907.16;8275237;28;20069;-65
2022/04/16 17:29:25;;;;;;;1.02;0.60;;;;;;;16.37;35.19;101915.75;8273175;28;20456;-65
2022/04/16 17:33:26;;;;;;;1.73;0.47;;;;;;;16.29;34.73;101923.81;8268615;28;20394;-65
2022/04/16 17:37:26;;;;;;;3.80;0.73;;;;;;;16.07;35.31;101918.63;8270742;28;20046;-65
2022/04/16 17:41:27;;;;;;;1.85;0.70;;;;;;;16.07;35.34;101924.91;8260371;28;20238;-65
2022/04/16 17:45:27;;;;;;;1.85;0.70;;;;;;;15.96;34.91;101933.25;8255865;28;20085;-65
2022/04/16 17:49:29;;;;;;;1.13;0.68;;;;;;;15.89;35.42;101920.31;8261660;28;20041;-65
2022/04/16 17:53:29;;;;;;;2.35;1.05;;;;;;;15.73;36.60;101920.00;8275317;28;20054;-65
2022/04/16 17:57:30;;;;;;;2.55;0.90;;;;;;;15.58;37.15;101917.63;8282470;28;20054;-65
2022/04/16 18:01:30;;;;;;;2.42;0.63;;;;;;;15.44;38.43;101928.91;8259001;28;20044;-65
2022/04/16 18:05:31;;;;;;;3.38;0.75;;;;;;;15.17;39.28;101934.09;8268499;28;20406;-65
2022/04/16 18:09:32;;;;;;;1.83;0.82;;;;;;;14.99;39.96;101932.97;8266317;28;20072;-65
2022/04/16 18:13:33;;;;;;;2.17;1.13;;;;;;;14.88;40.29;101937.66;8278174;28;20076;-65
2022/04/16 18:17:38;;;;;;;3.63;1.48;;;;;;;14.83;40.65;101924.44;8269385;28;20038;-65
2022/04/16 18:21:39;;;;;;;5.90;1.75;;;;;;;14.76;40.42;101936.81;8275657;28;20112;-65
2022/04/16 18:25:40;;;;;;;3.67;1.23;;;;;;;14.66;40.74;101944.06;8265077;28;20034;-65
2022/04/16 18:29:41;;;;;;;1.70;1.40;;;;;;;14.46;40.78;101941.34;8267615;28;20578;-65
2022/04/16 18:33:43;;;;;;;4.03;2.58;;;;;;;14.37;40.91;101943.00;8265505;28;20096;-65
2022/04/16 18:37:45;;;;;;;3.97;1.98;;;;;;;14.27;41.37;101952.91;8279257;28;20079;-65
2022/04/16 18:41:47;;;;;;;5.35;2.13;;;;;;;14.16;41.53;101950.22;8258290;28;20406;-65
2022/04/16 18:45:47;;;;;;;2.10;1.77;;;;;;;14.14;41.46;101951.31;8256083;28;20034;-65
2022/04/16 18:49:47;;;;;;;2.90;2.20;;;;;;;14.01;41.94;101956.91;8260798;28;20041;-65
2022/04/16 18:53:48;;;;;;;3.50;1.60;;;;;;;13.88;42.21;101962.50;8273652;28;20125;-65
2022/04/16 18:57:48;;;;;;;2.67;1.50;;;;;;;14.00;41.67;101971.50;8265413;28;20126;-65
2022/04/16 19:07:09;;;;;;;4.40;1.75;;;;;;;13.58;43.15;101975.03;8262845;28;20116;-65